sensor_id;sensor_type;location;lat;lon;timestamp;temperature;humidity
33368;DHT22;19724;51.114;13.906;2023-01-09T00:02:23;4.90;99.90
33368;DHT22;19724;51.114;13.906;2023-01-09T00:04:48;4.90;99.90
33368;DHT22;19724;51.114;13.906;2023-01-09T00:07:14;4.90;99.90
33368;DHT22;19724;51.114;13.906;2023-01-09T00:09:39;4.90;99.90
33368;DHT22;19724;51.114;13.906;2023-01-09T00:12:05;4.90;99.90
33368;DHT22;19724;51.114;13.906;2023-01-09T00:14:30;4.90;99.90
33368;DHT22;19724;51.114;13.906;2023-01-09T00:16:56;4.90;99.90
33368;DHT22;19724;51.114;13.906;2023-01-09T00:19:22;5.10;99.90
33368;DHT22;19724;51.114;13.906;2023-01-09T00:21:47;4.90;99.90
33368;DHT22;19724;51.114;13.906;2023-01-09T00:24:13;4.90;99.90
33368;DHT22;19724;51.114;13.906;2023-01-09T00:26:38;5.00;99.90
33368;DHT22;19724;51.114;13.906;2023-01-09T00:29:04;4.90;99.90
33368;DHT22;19724;51.114;13.906;2023-01-09T00:31:30;5.00;99.90
33368;DHT22;19724;51.114;13.906;2023-01-09T00:34:04;5.10;99.90
33368;DHT22;19724;51.114;13.906;2023-01-09T00:36:31;4.90;99.90
33368;DHT22;19724;51.114;13.906;2023-01-09T00:38:58;4.90;99.90
33368;DHT22;19724;51.114;13.906;2023-01-09T00:41:28;4.90;99.90
33368;DHT22;19724;51.114;13.906;2023-01-09T00:43:57;4.90;99.90
33368;DHT22;19724;51.114;13.906;2023-01-09T00:46:30;4.90;99.90
33368;DHT22;19724;51.114;13.906;2023-01-09T00:48:58;4.90;99.90
33368;DHT22;19724;51.114;13.906;2023-01-09T00:51:24;4.90;99.90
33368;DHT22;19724;51.114;13.906;2023-01-09T00:53:50;4.90;99.90
33368;DHT22;19724;51.114;13.906;2023-01-09T00:56:17;4.80;99.90
33368;DHT22;19724;51.114;13.906;2023-01-09T00:58:43;4.90;99.90
33368;DHT22;19724;51.114;13.906;2023-01-09T01:01:09;4.90;99.90
33368;DHT22;19724;51.114;13.906;2023-01-09T01:03:36;4.80;99.90
33368;DHT22;19724;51.114;13.906;2023-01-09T01:06:01;4.80;99.90
33368;DHT22;19724;51.114;13.906;2023-01-09T01:08:46;4.80;99.90
33368;DHT22;19724;51.114;13.906;2023-01-09T01:11:11;4.80;99.90
33368;DHT22;19724;51.114;13.906;2023-01-09T01:13:38;4.90;99.90
33368;DHT22;19724;51.114;13.906;2023-01-09T01:16:06;4.80;99.90
33368;DHT22;19724;51.114;13.906;2023-01-09T01:18:31;4.80;99.90
33368;DHT22;19724;51.114;13.906;2023-01-09T01:20:57;4.80;99.90
33368;DHT22;19724;51.114;13.906;2023-01-09T01:23:23;4.80;99.90
33368;DHT22;19724;51.114;13.906;2023-01-09T01:25:48;4.80;99.90
33368;DHT22;19724;51.114;13.906;2023-01-09T01:28:14;4.80;99.90
33368;DHT22;19724;51.114;13.906;2023-01-09T01:30:40;4.70;99.90
33368;DHT22;19724;51.114;13.906;2023-01-09T01:33:07;4.80;99.90
33368;DHT22;19724;51.114;13.906;2023-01-09T01:35:33;4.80;99.90
33368;DHT22;19724;51.114;13.906;2023-01-09T01:37:59;4.80;99.90
33368;DHT22;19724;51.114;13.906;2023-01-09T01:40:24;4.80;99.90
33368;DHT22;19724;51.114;13.906;2023-01-09T01:42:51;4.80;99.90
33368;DHT22;19724;51.114;13.906;2023-01-09T01:45:22;4.70;99.90
33368;DHT22;19724;51.114;13.906;2023-01-09T01:48:01;4.70;99.90
33368;DHT22;19724;51.114;13.906;2023-01-09T01:50:36;4.70;99.90
33368;DHT22;19724;51.114;13.906;2023-01-09T01:56:16;4.80;99.90
33368;DHT22;19724;51.114;13.906;2023-01-09T01:58:47;4.70;99.90
33368;DHT22;19724;51.114;13.906;2023-01-09T02:01:14;4.80;99.90
33368;DHT22;19724;51.114;13.906;2023-01-09T02:03:41;4.70;99.90
33368;DHT22;19724;51.114;13.906;2023-01-09T02:06:08;4.80;99.90
33368;DHT22;19724;51.114;13.906;2023-01-09T02:08:34;4.80;99.90
33368;DHT22;19724;51.114;13.906;2023-01-09T02:11:01;4.80;99.90
33368;DHT22;19724;51.114;13.906;2023-01-09T02:13:28;4.80;99.90
33368;DHT22;19724;51.114;13.906;2023-01-09T02:16:18;4.70;99.90
33368;DHT22;19724;51.114;13.906;2023-01-09T02:22:14;4.80;99.90
33368;DHT22;19724;51.114;13.906;2023-01-09T02:28:20;4.80;99.90
33368;DHT22;19724;51.114;13.906;2023-01-09T02:31:01;4.80;99.90
33368;DHT22;19724;51.114;13.906;2023-01-09T02:33:41;4.80;99.90
33368;DHT22;19724;51.114;13.906;2023-01-09T02:59:54;4.90;99.90
33368;DHT22;19724;51.114;13.906;2023-01-09T03:02:48;4.90;99.90
33368;DHT22;19724;51.114;13.906;2023-01-09T03:05:42;4.90;99.90
33368;DHT22;19724;51.114;13.906;2023-01-09T03:08:18;4.90;99.90
33368;DHT22;19724;51.114;13.906;2023-01-09T03:10:57;4.90;99.90
33368;DHT22;19724;51.114;13.906;2023-01-09T03:13:26;4.90;99.90
33368;DHT22;19724;51.114;13.906;2023-01-09T03:15:54;4.90;99.90
33368;DHT22;19724;51.114;13.906;2023-01-09T03:18:23;4.90;99.90
33368;DHT22;19724;51.114;13.906;2023-01-09T03:20:50;4.90;99.90
33368;DHT22;19724;51.114;13.906;2023-01-09T03:23:16;4.90;99.90
33368;DHT22;19724;51.114;13.906;2023-01-09T03:25:41;4.80;99.90
33368;DHT22;19724;51.114;13.906;2023-01-09T03:28:12;4.90;99.90
33368;DHT22;19724;51.114;13.906;2023-01-09T03:30:42;4.80;99.90
33368;DHT22;19724;51.114;13.906;2023-01-09T03:33:07;4.80;99.90
33368;DHT22;19724;51.114;13.906;2023-01-09T03:35:33;4.80;99.90
33368;DHT22;19724;51.114;13.906;2023-01-09T03:37:58;4.80;99.90
33368;DHT22;19724;51.114;13.906;2023-01-09T03:40:23;4.70;99.90
33368;DHT22;19724;51.114;13.906;2023-01-09T03:42:49;4.70;99.90
33368;DHT22;19724;51.114;13.906;2023-01-09T03:45:14;4.70;99.90
33368;DHT22;19724;51.114;13.906;2023-01-09T03:47:40;4.70;99.90
33368;DHT22;19724;51.114;13.906;2023-01-09T03:50:06;4.60;99.90
33368;DHT22;19724;51.114;13.906;2023-01-09T03:52:31;4.60;99.90
33368;DHT22;19724;51.114;13.906;2023-01-09T03:54:58;4.60;99.90
33368;DHT22;19724;51.114;13.906;2023-01-09T03:57:23;4.50;99.90
33368;DHT22;19724;51.114;13.906;2023-01-09T03:59:49;4.50;99.90
33368;DHT22;19724;51.114;13.906;2023-01-09T04:02:16;4.50;99.90
33368;DHT22;19724;51.114;13.906;2023-01-09T04:04:41;4.40;99.90
33368;DHT22;19724;51.114;13.906;2023-01-09T04:07:07;4.50;99.90
33368;DHT22;19724;51.114;13.906;2023-01-09T04:09:32;4.50;99.90
33368;DHT22;19724;51.114;13.906;2023-01-09T04:11:58;4.50;99.90
33368;DHT22;19724;51.114;13.906;2023-01-09T04:14:23;4.50;99.90
33368;DHT22;19724;51.114;13.906;2023-01-09T04:16:49;4.50;99.90
33368;DHT22;19724;51.114;13.906;2023-01-09T04:19:14;4.50;99.90
33368;DHT22;19724;51.114;13.906;2023-01-09T04:21:40;4.50;99.90
33368;DHT22;19724;51.114;13.906;2023-01-09T04:24:05;4.50;99.90
33368;DHT22;19724;51.114;13.906;2023-01-09T04:26:31;4.50;99.90
33368;DHT22;19724;51.114;13.906;2023-01-09T04:28:56;4.40;99.90
33368;DHT22;19724;51.114;13.906;2023-01-09T04:31:22;4.40;99.90
33368;DHT22;19724;51.114;13.906;2023-01-09T04:33:47;4.40;99.90
33368;DHT22;19724;51.114;13.906;2023-01-09T04:36:13;4.50;99.90
33368;DHT22;19724;51.114;13.906;2023-01-09T04:38:38;4.40;99.90
33368;DHT22;19724;51.114;13.906;2023-01-09T04:41:04;4.40;99.90
33368;DHT22;19724;51.114;13.906;2023-01-09T04:43:29;4.50;99.90
33368;DHT22;19724;51.114;13.906;2023-01-09T04:45:55;4.50;99.90
33368;DHT22;19724;51.114;13.906;2023-01-09T04:48:20;4.40;99.90
33368;DHT22;19724;51.114;13.906;2023-01-09T04:50:46;4.40;99.90
33368;DHT22;19724;51.114;13.906;2023-01-09T04:53:11;4.40;99.90
33368;DHT22;19724;51.114;13.906;2023-01-09T04:55:37;4.40;99.90
33368;DHT22;19724;51.114;13.906;2023-01-09T04:58:02;4.50;99.90
33368;DHT22;19724;51.114;13.906;2023-01-09T05:00:28;4.50;99.90
33368;DHT22;19724;51.114;13.906;2023-01-09T05:02:53;4.50;99.90
33368;DHT22;19724;51.114;13.906;2023-01-09T05:05:19;4.50;99.90
33368;DHT22;19724;51.114;13.906;2023-01-09T05:07:44;4.50;99.90
33368;DHT22;19724;51.114;13.906;2023-01-09T05:10:10;4.40;99.90
33368;DHT22;19724;51.114;13.906;2023-01-09T05:12:36;4.40;99.90
33368;DHT22;19724;51.114;13.906;2023-01-09T05:15:06;4.40;99.90
33368;DHT22;19724;51.114;13.906;2023-01-09T05:17:32;4.40;99.90
33368;DHT22;19724;51.114;13.906;2023-01-09T05:19:57;4.40;99.90
33368;DHT22;19724;51.114;13.906;2023-01-09T05:22:25;4.50;99.90
33368;DHT22;19724;51.114;13.906;2023-01-09T05:24:50;4.50;99.90
33368;DHT22;19724;51.114;13.906;2023-01-09T05:27:16;4.50;99.90
33368;DHT22;19724;51.114;13.906;2023-01-09T05:29:41;4.50;99.90
33368;DHT22;19724;51.114;13.906;2023-01-09T05:32:07;4.50;99.90
33368;DHT22;19724;51.114;13.906;2023-01-09T05:34:32;4.50;99.90
33368;DHT22;19724;51.114;13.906;2023-01-09T05:36:58;4.50;99.90
33368;DHT22;19724;51.114;13.906;2023-01-09T05:39:23;4.50;99.90
33368;DHT22;19724;51.114;13.906;2023-01-09T05:41:48;4.50;99.90
33368;DHT22;19724;51.114;13.906;2023-01-09T05:44:14;4.50;99.90
33368;DHT22;19724;51.114;13.906;2023-01-09T05:46:39;4.40;99.90
33368;DHT22;19724;51.114;13.906;2023-01-09T05:49:05;4.40;99.90
33368;DHT22;19724;51.114;13.906;2023-01-09T05:51:30;4.40;99.90
33368;DHT22;19724;51.114;13.906;2023-01-09T05:53:57;4.40;99.90
33368;DHT22;19724;51.114;13.906;2023-01-09T05:56:22;4.40;99.90
33368;DHT22;19724;51.114;13.906;2023-01-09T05:58:48;4.40;99.90
33368;DHT22;19724;51.114;13.906;2023-01-09T06:01:14;4.40;99.90
33368;DHT22;19724;51.114;13.906;2023-01-09T06:03:39;4.40;99.90
33368;DHT22;19724;51.114;13.906;2023-01-09T06:06:05;4.40;99.90
33368;DHT22;19724;51.114;13.906;2023-01-09T06:08:31;4.30;99.90
33368;DHT22;19724;51.114;13.906;2023-01-09T06:10:56;4.30;99.90
33368;DHT22;19724;51.114;13.906;2023-01-09T06:13:21;4.30;99.90
33368;DHT22;19724;51.114;13.906;2023-01-09T06:15:47;4.30;99.90
33368;DHT22;19724;51.114;13.906;2023-01-09T06:18:13;4.20;99.90
33368;DHT22;19724;51.114;13.906;2023-01-09T06:20:38;4.30;99.90
33368;DHT22;19724;51.114;13.906;2023-01-09T06:23:04;4.20;99.90
33368;DHT22;19724;51.114;13.906;2023-01-09T06:25:29;4.20;99.90
33368;DHT22;19724;51.114;13.906;2023-01-09T06:27:55;4.20;99.90
33368;DHT22;19724;51.114;13.906;2023-01-09T06:30:20;4.20;99.90
33368;DHT22;19724;51.114;13.906;2023-01-09T06:32:47;4.20;99.90
33368;DHT22;19724;51.114;13.906;2023-01-09T06:35:14;4.20;99.90
33368;DHT22;19724;51.114;13.906;2023-01-09T06:37:39;4.20;99.90
33368;DHT22;19724;51.114;13.906;2023-01-09T06:40:09;4.20;99.90
33368;DHT22;19724;51.114;13.906;2023-01-09T06:42:34;4.20;99.90
33368;DHT22;19724;51.114;13.906;2023-01-09T06:45:00;4.20;99.90
33368;DHT22;19724;51.114;13.906;2023-01-09T06:47:25;4.20;99.90
33368;DHT22;19724;51.114;13.906;2023-01-09T06:49:51;4.20;99.90
33368;DHT22;19724;51.114;13.906;2023-01-09T06:52:16;4.20;99.90
33368;DHT22;19724;51.114;13.906;2023-01-09T06:54:41;4.20;99.90
33368;DHT22;19724;51.114;13.906;2023-01-09T06:57:07;4.30;99.90
33368;DHT22;19724;51.114;13.906;2023-01-09T06:59:32;4.30;99.90
33368;DHT22;19724;51.114;13.906;2023-01-09T07:01:58;4.30;99.90
33368;DHT22;19724;51.114;13.906;2023-01-09T07:04:23;4.30;99.90
33368;DHT22;19724;51.114;13.906;2023-01-09T07:06:49;4.40;99.90
33368;DHT22;19724;51.114;13.906;2023-01-09T07:09:14;4.40;99.90
33368;DHT22;19724;51.114;13.906;2023-01-09T07:11:40;4.40;99.90
33368;DHT22;19724;51.114;13.906;2023-01-09T07:14:06;4.40;99.90
33368;DHT22;19724;51.114;13.906;2023-01-09T07:16:31;4.40;99.90
33368;DHT22;19724;51.114;13.906;2023-01-09T07:18:58;4.40;99.90
33368;DHT22;19724;51.114;13.906;2023-01-09T07:21:23;4.40;99.90
33368;DHT22;19724;51.114;13.906;2023-01-09T07:23:49;4.40;99.90
33368;DHT22;19724;51.114;13.906;2023-01-09T07:26:14;4.40;99.90
33368;DHT22;19724;51.114;13.906;2023-01-09T07:28:40;4.40;99.90
33368;DHT22;19724;51.114;13.906;2023-01-09T07:31:05;4.40;99.90
33368;DHT22;19724;51.114;13.906;2023-01-09T07:33:32;4.40;99.90
33368;DHT22;19724;51.114;13.906;2023-01-09T07:35:58;4.40;99.90
33368;DHT22;19724;51.114;13.906;2023-01-09T07:38:24;4.50;99.90
33368;DHT22;19724;51.114;13.906;2023-01-09T07:40:49;4.50;99.90
33368;DHT22;19724;51.114;13.906;2023-01-09T07:43:15;4.50;99.90
33368;DHT22;19724;51.114;13.906;2023-01-09T07:45:40;4.50;99.90
33368;DHT22;19724;51.114;13.906;2023-01-09T07:48:06;4.50;99.90
33368;DHT22;19724;51.114;13.906;2023-01-09T07:50:31;4.50;99.90
33368;DHT22;19724;51.114;13.906;2023-01-09T07:52:57;4.60;99.90
33368;DHT22;19724;51.114;13.906;2023-01-09T07:55:22;4.50;99.90
33368;DHT22;19724;51.114;13.906;2023-01-09T07:57:49;4.50;99.90
33368;DHT22;19724;51.114;13.906;2023-01-09T08:00:15;4.50;99.90
33368;DHT22;19724;51.114;13.906;2023-01-09T08:02:41;4.50;99.90
33368;DHT22;19724;51.114;13.906;2023-01-09T08:05:06;4.50;99.90
33368;DHT22;19724;51.114;13.906;2023-01-09T08:07:33;4.60;99.90
33368;DHT22;19724;51.114;13.906;2023-01-09T08:09:59;4.60;99.90
33368;DHT22;19724;51.114;13.906;2023-01-09T08:12:25;4.60;99.90
33368;DHT22;19724;51.114;13.906;2023-01-09T08:14:50;4.60;99.90
33368;DHT22;19724;51.114;13.906;2023-01-09T08:17:16;4.70;99.90
33368;DHT22;19724;51.114;13.906;2023-01-09T08:19:41;4.70;99.90
33368;DHT22;19724;51.114;13.906;2023-01-09T08:22:08;4.70;99.90
33368;DHT22;19724;51.114;13.906;2023-01-09T08:24:34;4.80;99.90
33368;DHT22;19724;51.114;13.906;2023-01-09T08:27:01;4.80;99.90
33368;DHT22;19724;51.114;13.906;2023-01-09T08:29:26;4.90;99.90
33368;DHT22;19724;51.114;13.906;2023-01-09T08:31:53;4.80;99.90
33368;DHT22;19724;51.114;13.906;2023-01-09T08:34:18;4.80;99.90
33368;DHT22;19724;51.114;13.906;2023-01-09T08:36:44;4.90;99.90
33368;DHT22;19724;51.114;13.906;2023-01-09T08:39:09;4.90;99.90
33368;DHT22;19724;51.114;13.906;2023-01-09T08:41:35;5.00;99.90
33368;DHT22;19724;51.114;13.906;2023-01-09T08:44:19;5.00;99.90
33368;DHT22;19724;51.114;13.906;2023-01-09T08:47:03;5.00;99.90
33368;DHT22;19724;51.114;13.906;2023-01-09T08:49:36;5.10;99.90
33368;DHT22;19724;51.114;13.906;2023-01-09T08:52:02;5.20;99.90
33368;DHT22;19724;51.114;13.906;2023-01-09T08:54:28;5.30;99.90
33368;DHT22;19724;51.114;13.906;2023-01-09T08:56:54;5.30;99.90
33368;DHT22;19724;51.114;13.906;2023-01-09T08:59:19;5.40;99.90
33368;DHT22;19724;51.114;13.906;2023-01-09T09:01:45;5.40;99.90
33368;DHT22;19724;51.114;13.906;2023-01-09T09:04:10;5.50;99.90
33368;DHT22;19724;51.114;13.906;2023-01-09T09:06:36;5.50;99.90
33368;DHT22;19724;51.114;13.906;2023-01-09T09:09:01;5.60;99.90
33368;DHT22;19724;51.114;13.906;2023-01-09T09:11:31;5.60;99.90
33368;DHT22;19724;51.114;13.906;2023-01-09T09:13:58;5.70;99.90
33368;DHT22;19724;51.114;13.906;2023-01-09T09:16:24;5.70;99.90
33368;DHT22;19724;51.114;13.906;2023-01-09T09:18:50;5.70;99.90
33368;DHT22;19724;51.114;13.906;2023-01-09T09:21:16;5.80;99.90
33368;DHT22;19724;51.114;13.906;2023-01-09T09:23:41;5.80;99.90
33368;DHT22;19724;51.114;13.906;2023-01-09T09:26:08;5.90;99.90
33368;DHT22;19724;51.114;13.906;2023-01-09T09:28:34;5.90;99.90
33368;DHT22;19724;51.114;13.906;2023-01-09T09:31:00;6.00;99.90
33368;DHT22;19724;51.114;13.906;2023-01-09T09:33:25;6.00;99.90
33368;DHT22;19724;51.114;13.906;2023-01-09T09:35:51;6.10;99.90
33368;DHT22;19724;51.114;13.906;2023-01-09T09:38:16;6.20;99.90
33368;DHT22;19724;51.114;13.906;2023-01-09T09:41:13;6.30;99.90
33368;DHT22;19724;51.114;13.906;2023-01-09T09:44:21;6.30;99.90
33368;DHT22;19724;51.114;13.906;2023-01-09T09:47:39;6.40;99.90
33368;DHT22;19724;51.114;13.906;2023-01-09T09:53:19;6.60;99.90
33368;DHT22;19724;51.114;13.906;2023-01-09T09:55:47;6.60;99.90
33368;DHT22;19724;51.114;13.906;2023-01-09T09:58:26;6.70;99.90
33368;DHT22;19724;51.114;13.906;2023-01-09T10:00:53;6.70;99.90
33368;DHT22;19724;51.114;13.906;2023-01-09T10:03:30;6.80;99.90
33368;DHT22;19724;51.114;13.906;2023-01-09T10:05:57;6.80;99.90
33368;DHT22;19724;51.114;13.906;2023-01-09T10:11:21;6.90;99.90
33368;DHT22;19724;51.114;13.906;2023-01-09T10:13:48;7.00;99.90
33368;DHT22;19724;51.114;13.906;2023-01-09T10:19:33;7.10;99.90
33368;DHT22;19724;51.114;13.906;2023-01-09T10:31:26;7.20;99.90
33368;DHT22;19724;51.114;13.906;2023-01-09T10:34:12;7.30;99.90
33368;DHT22;19724;51.114;13.906;2023-01-09T10:39:38;7.30;99.90
33368;DHT22;19724;51.114;13.906;2023-01-09T10:42:16;7.30;99.90
33368;DHT22;19724;51.114;13.906;2023-01-09T10:44:55;7.30;99.90
33368;DHT22;19724;51.114;13.906;2023-01-09T10:47:29;7.30;99.90
33368;DHT22;19724;51.114;13.906;2023-01-09T10:49:56;7.30;99.90
33368;DHT22;19724;51.114;13.906;2023-01-09T10:52:29;7.40;99.90
33368;DHT22;19724;51.114;13.906;2023-01-09T10:55:47;7.30;99.90
33368;DHT22;19724;51.114;13.906;2023-01-09T10:57:52;7.30;99.90
33368;DHT22;19724;51.114;13.906;2023-01-09T11:00:20;7.30;99.90
33368;DHT22;19724;51.114;13.906;2023-01-09T11:02:47;7.30;99.90
33368;DHT22;19724;51.114;13.906;2023-01-09T11:05:22;7.30;99.90
33368;DHT22;19724;51.114;13.906;2023-01-09T11:10:56;7.20;99.90
33368;DHT22;19724;51.114;13.906;2023-01-09T11:13:29;7.30;99.90
33368;DHT22;19724;51.114;13.906;2023-01-09T11:16:05;7.20;99.90
33368;DHT22;19724;51.114;13.906;2023-01-09T11:18:32;7.20;99.90
33368;DHT22;19724;51.114;13.906;2023-01-09T11:21:26;7.20;99.90
33368;DHT22;19724;51.114;13.906;2023-01-09T11:23:56;7.20;99.90
33368;DHT22;19724;51.114;13.906;2023-01-09T11:26:41;7.30;99.90
33368;DHT22;19724;51.114;13.906;2023-01-09T11:29:13;7.30;99.90
33368;DHT22;19724;51.114;13.906;2023-01-09T11:31:40;7.30;99.90
33368;DHT22;19724;51.114;13.906;2023-01-09T11:34:18;7.40;99.90
33368;DHT22;19724;51.114;13.906;2023-01-09T11:36:45;7.40;99.90
33368;DHT22;19724;51.114;13.906;2023-01-09T11:39:31;7.50;99.90
33368;DHT22;19724;51.114;13.906;2023-01-09T11:41:59;7.50;99.90
33368;DHT22;19724;51.114;13.906;2023-01-09T11:44:27;7.50;99.90
33368;DHT22;19724;51.114;13.906;2023-01-09T11:46:54;7.50;99.90
33368;DHT22;19724;51.114;13.906;2023-01-09T11:49:28;7.50;99.90
33368;DHT22;19724;51.114;13.906;2023-01-09T11:52:15;7.50;99.90
33368;DHT22;19724;51.114;13.906;2023-01-09T11:54:51;7.50;99.90
33368;DHT22;19724;51.114;13.906;2023-01-09T11:57:19;7.50;99.90
33368;DHT22;19724;51.114;13.906;2023-01-09T11:59:45;7.50;99.90
33368;DHT22;19724;51.114;13.906;2023-01-09T12:02:53;7.50;99.90
33368;DHT22;19724;51.114;13.906;2023-01-09T12:05:49;7.50;99.90
33368;DHT22;19724;51.114;13.906;2023-01-09T12:08:26;7.50;99.90
33368;DHT22;19724;51.114;13.906;2023-01-09T12:13:57;7.50;99.90
33368;DHT22;19724;51.114;13.906;2023-01-09T12:16:45;7.60;99.90
33368;DHT22;19724;51.114;13.906;2023-01-09T12:22:30;7.70;99.90
33368;DHT22;19724;51.114;13.906;2023-01-09T12:24:38;7.70;99.90
33368;DHT22;19724;51.114;13.906;2023-01-09T12:27:23;7.80;99.90
33368;DHT22;19724;51.114;13.906;2023-01-09T12:32:56;7.80;99.90
33368;DHT22;19724;51.114;13.906;2023-01-09T12:46:54;7.70;99.90
33368;DHT22;19724;51.114;13.906;2023-01-09T12:52:18;7.60;99.90
33368;DHT22;19724;51.114;13.906;2023-01-09T12:55:05;7.60;99.90
33368;DHT22;19724;51.114;13.906;2023-01-09T12:57:50;7.60;99.90
33368;DHT22;19724;51.114;13.906;2023-01-09T13:02:59;7.70;99.90
33368;DHT22;19724;51.114;13.906;2023-01-09T13:05:36;7.70;99.90
33368;DHT22;19724;51.114;13.906;2023-01-09T13:08:13;7.70;99.90
33368;DHT22;19724;51.114;13.906;2023-01-09T13:10:42;7.80;99.90
33368;DHT22;19724;51.114;13.906;2023-01-09T13:16:29;7.90;99.90
33368;DHT22;19724;51.114;13.906;2023-01-09T13:19:17;7.90;99.90
33368;DHT22;19724;51.114;13.906;2023-01-09T13:21:45;7.90;99.90
33368;DHT22;19724;51.114;13.906;2023-01-09T13:27:04;8.00;99.90
33368;DHT22;19724;51.114;13.906;2023-01-09T13:29:46;8.00;99.90
33368;DHT22;19724;51.114;13.906;2023-01-09T13:34:53;8.00;99.90
33368;DHT22;19724;51.114;13.906;2023-01-09T13:37:27;8.00;99.90
33368;DHT22;19724;51.114;13.906;2023-01-09T13:39:57;8.00;99.90
33368;DHT22;19724;51.114;13.906;2023-01-09T13:42:24;8.00;99.90
33368;DHT22;19724;51.114;13.906;2023-01-09T13:45:22;7.90;99.90
33368;DHT22;19724;51.114;13.906;2023-01-09T13:48:23;7.90;99.90
33368;DHT22;19724;51.114;13.906;2023-01-09T13:50:50;7.90;99.90
33368;DHT22;19724;51.114;13.906;2023-01-09T13:56:04;7.90;99.90
33368;DHT22;19724;51.114;13.906;2023-01-09T14:01:04;7.90;99.90
33368;DHT22;19724;51.114;13.906;2023-01-09T14:03:35;8.00;99.90
33368;DHT22;19724;51.114;13.906;2023-01-09T14:06:03;8.00;99.90
33368;DHT22;19724;51.114;13.906;2023-01-09T14:08:30;8.00;99.90
33368;DHT22;19724;51.114;13.906;2023-01-09T14:11:02;7.90;99.90
33368;DHT22;19724;51.114;13.906;2023-01-09T14:13:38;8.00;99.90
33368;DHT22;19724;51.114;13.906;2023-01-09T14:16:24;8.00;99.90
33368;DHT22;19724;51.114;13.906;2023-01-09T14:19:36;7.90;99.90
33368;DHT22;19724;51.114;13.906;2023-01-09T14:21:51;7.90;99.90
33368;DHT22;19724;51.114;13.906;2023-01-09T14:24:27;7.90;99.90
33368;DHT22;19724;51.114;13.906;2023-01-09T14:26:58;7.90;99.90
33368;DHT22;19724;51.114;13.906;2023-01-09T14:35:24;7.80;99.90
33368;DHT22;19724;51.114;13.906;2023-01-09T14:39:00;7.70;99.90
33368;DHT22;19724;51.114;13.906;2023-01-09T14:41:02;7.70;99.90
33368;DHT22;19724;51.114;13.906;2023-01-09T14:44:13;7.70;99.90
33368;DHT22;19724;51.114;13.906;2023-01-09T14:46:33;7.70;99.90
33368;DHT22;19724;51.114;13.906;2023-01-09T14:49:15;7.70;99.90
33368;DHT22;19724;51.114;13.906;2023-01-09T14:51:46;7.70;99.90
33368;DHT22;19724;51.114;13.906;2023-01-09T14:54:27;7.60;99.90
33368;DHT22;19724;51.114;13.906;2023-01-09T14:56:54;7.60;99.90
33368;DHT22;19724;51.114;13.906;2023-01-09T14:59:19;7.50;99.90
33368;DHT22;19724;51.114;13.906;2023-01-09T15:01:47;7.60;99.90
33368;DHT22;19724;51.114;13.906;2023-01-09T15:04:31;7.50;99.90
33368;DHT22;19724;51.114;13.906;2023-01-09T15:06:59;7.50;99.90
33368;DHT22;19724;51.114;13.906;2023-01-09T15:09:34;7.50;99.90
33368;DHT22;19724;51.114;13.906;2023-01-09T15:12:05;7.50;99.90
33368;DHT22;19724;51.114;13.906;2023-01-09T15:14:40;7.50;99.90
33368;DHT22;19724;51.114;13.906;2023-01-09T15:17:15;7.50;99.90
33368;DHT22;19724;51.114;13.906;2023-01-09T15:19:44;7.50;99.90
33368;DHT22;19724;51.114;13.906;2023-01-09T15:22:35;7.40;99.90
33368;DHT22;19724;51.114;13.906;2023-01-09T15:27:52;7.40;99.90
33368;DHT22;19724;51.114;13.906;2023-01-09T15:30:31;7.50;99.90
33368;DHT22;19724;51.114;13.906;2023-01-09T15:33:08;7.40;99.90
33368;DHT22;19724;51.114;13.906;2023-01-09T15:35:35;7.40;99.90
33368;DHT22;19724;51.114;13.906;2023-01-09T15:38:04;7.40;99.90
33368;DHT22;19724;51.114;13.906;2023-01-09T15:40:32;7.40;99.90
33368;DHT22;19724;51.114;13.906;2023-01-09T15:42:59;7.40;99.90
33368;DHT22;19724;51.114;13.906;2023-01-09T15:45:34;7.30;99.90
33368;DHT22;19724;51.114;13.906;2023-01-09T15:48:22;7.20;99.90
33368;DHT22;19724;51.114;13.906;2023-01-09T15:51:00;7.20;99.90
33368;DHT22;19724;51.114;13.906;2023-01-09T15:53:27;7.20;99.90
33368;DHT22;19724;51.114;13.906;2023-01-09T15:56:23;7.20;99.90
33368;DHT22;19724;51.114;13.906;2023-01-09T15:58:50;7.10;99.90
33368;DHT22;19724;51.114;13.906;2023-01-09T16:01:37;7.00;99.90
33368;DHT22;19724;51.114;13.906;2023-01-09T16:04:12;7.00;99.90
33368;DHT22;19724;51.114;13.906;2023-01-09T16:06:48;6.90;99.90
33368;DHT22;19724;51.114;13.906;2023-01-09T16:09:21;6.90;99.90
33368;DHT22;19724;51.114;13.906;2023-01-09T16:11:52;6.90;99.90
33368;DHT22;19724;51.114;13.906;2023-01-09T16:14:24;6.90;99.90
33368;DHT22;19724;51.114;13.906;2023-01-09T16:16:52;6.80;99.90
33368;DHT22;19724;51.114;13.906;2023-01-09T16:19:30;6.70;99.90
33368;DHT22;19724;51.114;13.906;2023-01-09T16:21:58;6.70;99.90
33368;DHT22;19724;51.114;13.906;2023-01-09T16:24:26;6.70;99.90
33368;DHT22;19724;51.114;13.906;2023-01-09T16:27:31;6.70;99.90
33368;DHT22;19724;51.114;13.906;2023-01-09T16:30:04;6.60;99.90
33368;DHT22;19724;51.114;13.906;2023-01-09T16:32:33;6.50;99.90
33368;DHT22;19724;51.114;13.906;2023-01-09T16:35:12;6.50;99.90
33368;DHT22;19724;51.114;13.906;2023-01-09T16:37:39;6.40;99.90
33368;DHT22;19724;51.114;13.906;2023-01-09T16:42:31;6.30;99.90
33368;DHT22;19724;51.114;13.906;2023-01-09T16:45:15;6.20;99.90
33368;DHT22;19724;51.114;13.906;2023-01-09T16:47:41;6.20;99.90
33368;DHT22;19724;51.114;13.906;2023-01-09T16:50:10;6.10;99.90
33368;DHT22;19724;51.114;13.906;2023-01-09T16:52:36;6.10;99.90
33368;DHT22;19724;51.114;13.906;2023-01-09T16:55:03;6.10;99.90
33368;DHT22;19724;51.114;13.906;2023-01-09T16:57:29;6.10;99.90
33368;DHT22;19724;51.114;13.906;2023-01-09T16:59:56;6.10;99.90
33368;DHT22;19724;51.114;13.906;2023-01-09T17:02:24;6.00;99.90
33368;DHT22;19724;51.114;13.906;2023-01-09T17:04:50;5.90;99.90
33368;DHT22;19724;51.114;13.906;2023-01-09T17:07:16;5.90;99.90
33368;DHT22;19724;51.114;13.906;2023-01-09T17:09:42;5.90;99.90
33368;DHT22;19724;51.114;13.906;2023-01-09T17:12:16;5.90;99.90
33368;DHT22;19724;51.114;13.906;2023-01-09T17:14:44;5.80;99.90
33368;DHT22;19724;51.114;13.906;2023-01-09T17:17:10;5.70;99.90
33368;DHT22;19724;51.114;13.906;2023-01-09T17:19:39;5.60;99.90
33368;DHT22;19724;51.114;13.906;2023-01-09T17:22:05;5.60;99.90
33368;DHT22;19724;51.114;13.906;2023-01-09T17:24:30;5.60;99.90
33368;DHT22;19724;51.114;13.906;2023-01-09T17:27:15;5.60;99.90
33368;DHT22;19724;51.114;13.906;2023-01-09T17:29:59;5.60;99.90
33368;DHT22;19724;51.114;13.906;2023-01-09T17:32:25;5.60;99.90
33368;DHT22;19724;51.114;13.906;2023-01-09T17:34:50;5.50;99.90
33368;DHT22;19724;51.114;13.906;2023-01-09T17:37:17;5.60;99.90
33368;DHT22;19724;51.114;13.906;2023-01-09T17:39:44;5.50;99.90